Time;durP1;ratioP1;P1;durP2;ratioP2;P2;SDS_P1;SDS_P2;PMS_P1;PMS_P2;Temp;Humidity;BMP_temperature;BMP_pressure;BME280_temperature;BME280_humidity;BME280_pressure;Samples;Min_cycle;Max_cycle;Signal;HPM_P1;HPM_P2
2021/11/19 00:01:20;;;;;;;;;;;2.20;1.00;;;;;;5028603;28;19968;-70
2021/11/19 00:03:46;;;;;;;;;;;2.20;1.00;;;;;;5028491;28;19956;-70
2021/11/19 00:06:12;;;;;;;;;;;2.30;1.00;;;;;;5014214;28;19917;-69
2021/11/19 00:08:38;;;;;;;;;;;2.30;1.00;;;;;;5007857;28;20000;-69
2021/11/19 00:11:06;;;;;;;;;;;2.20;1.00;;;;;;5008254;28;19963;-70
2021/11/19 00:13:31;;;;;;;;;;;2.10;1.00;;;;;;5008350;28;19910;-70
2021/11/19 00:15:57;;;;;;;;;;;2.10;1.00;;;;;;5008511;28;20453;-69
2021/11/19 00:18:23;;;;;;;;;;;2.00;1.00;;;;;;5008806;28;20003;-69
2021/11/19 00:20:49;;;;;;;;;;;2.00;1.00;;;;;;5008348;28;20024;-69
2021/11/19 00:23:15;;;;;;;;;;;1.90;1.00;;;;;;4989172;28;19970;-70
2021/11/19 00:25:40;;;;;;;;;;;2.00;1.00;;;;;;5008258;28;19914;-69
2021/11/19 00:28:06;;;;;;;;;;;2.00;1.00;;;;;;5008536;28;19913;-67
2021/11/19 00:30:32;;;;;;;;;;;1.90;1.00;;;;;;5008626;28;19909;-70
2021/11/19 00:32:58;;;;;;;;;;;1.90;1.00;;;;;;5007424;28;19914;-68
2021/11/19 00:35:24;;;;;;;;;;;1.90;1.00;;;;;;5008587;28;19916;-67
2021/11/19 00:37:51;;;;;;;;;;;2.00;1.00;;;;;;5007806;28;19909;-70
2021/11/19 00:40:20;;;;;;;;;;;2.00;1.00;;;;;;5008525;28;19920;-69
2021/11/19 00:42:45;;;;;;;;;;;2.00;1.00;;;;;;5007659;28;19909;-70
2021/11/19 00:45:11;;;;;;;;;;;2.00;1.00;;;;;;5008354;28;20072;-69
2021/11/19 00:47:37;;;;;;;;;;;2.00;1.00;;;;;;5008891;28;19910;-68
2021/11/19 00:50:04;;;;;;;;;;;2.10;1.00;;;;;;5008305;28;19984;-70
2021/11/19 00:52:30;;;;;;;;;;;2.10;1.00;;;;;;5008267;28;20305;-68
2021/11/19 00:54:55;;;;;;;;;;;2.10;1.00;;;;;;5006906;28;19910;-69
2021/11/19 00:57:21;;;;;;;;;;;2.10;1.00;;;;;;5009018;28;19952;-69
2021/11/19 00:59:47;;;;;;;;;;;2.10;1.00;;;;;;5012651;28;20374;-69
2021/11/19 01:02:15;;;;;;;;;;;2.00;1.00;;;;;;5011810;28;20370;-69
2021/11/19 01:04:41;;;;;;;;;;;2.00;1.00;;;;;;4995985;28;20038;-69
2021/11/19 01:07:07;;;;;;;;;;;2.00;1.00;;;;;;5031622;28;20031;-70
2021/11/19 01:09:35;;;;;;;;;;;2.00;1.00;;;;;;5030280;28;19909;-68
2021/11/19 01:12:01;;;;;;;;;;;2.00;1.00;;;;;;5031734;28;20318;-69
2021/11/19 01:14:29;;;;;;;;;;;2.00;1.00;;;;;;5031571;28;20362;-69
2021/11/19 01:16:56;;;;;;;;;;;2.00;1.00;;;;;;5031712;28;19975;-69
2021/11/19 01:19:26;;;;;;;;;;;2.00;1.00;;;;;;5031133;28;19909;-70
2021/11/19 01:21:54;;;;;;;;;;;1.90;1.00;;;;;;5031323;28;19913;-70
2021/11/19 01:24:20;;;;;;;;;;;1.90;1.00;;;;;;5029945;28;20095;-69
2021/11/19 01:26:46;;;;;;;;;;;1.90;1.00;;;;;;5013634;28;19916;-67
2021/11/19 01:29:14;;;;;;;;;;;1.90;1.00;;;;;;5031237;28;20069;-66
2021/11/19 01:31:43;;;;;;;;;;;1.90;1.00;;;;;;5025733;28;19928;-68
2021/11/19 01:34:08;;;;;;;;;;;1.90;1.00;;;;;;5023609;28;20391;-69
2021/11/19 01:36:34;;;;;;;;;;;1.90;1.00;;;;;;5031393;28;20004;-70
2021/11/19 01:39:00;;;;;;;;;;;1.90;1.00;;;;;;5026686;28;19993;-69
2021/11/19 01:41:32;;;;;;;;;;;1.90;1.00;;;;;;5011105;28;19914;-69
2021/11/19 01:43:59;;;;;;;;;;;1.90;1.00;;;;;;5010774;28;19910;-69
2021/11/19 01:46:26;;;;;;;;;;;1.90;1.00;;;;;;5011738;28;19940;-70
2021/11/19 01:48:53;;;;;;;;;;;1.90;1.00;;;;;;5011502;28;19914;-69
2021/11/19 01:51:32;;;;;;;;;;;1.90;1.00;;;;;;5011653;28;19917;-70
2021/11/19 01:54:05;;;;;;;;;;;1.90;1.00;;;;;;5009699;28;19914;-67
2021/11/19 01:56:34;;;;;;;;;;;1.80;1.00;;;;;;5011320;28;20291;-70
2021/11/19 01:59:20;;;;;;;;;;;1.90;1.00;;;;;;5011594;28;19913;-70
2021/11/19 02:01:50;;;;;;;;;;;1.90;1.00;;;;;;4992789;28;19924;-69
2021/11/19 02:04:19;;;;;;;;;;;1.90;1.00;;;;;;5011371;28;19909;-68
2021/11/19 02:06:50;;;;;;;;;;;1.90;1.00;;;;;;5030123;28;19909;-69
2021/11/19 02:09:25;;;;;;;;;;;1.90;1.00;;;;;;5028376;28;19916;-70
2021/11/19 02:11:53;;;;;;;;;;;1.90;1.00;;;;;;5030648;28;19925;-69
2021/11/19 02:14:42;;;;;;;;;;;1.90;1.00;;;;;;5030910;28;20435;-70
2021/11/19 02:17:08;;;;;;;;;;;1.80;1.00;;;;;;5007891;22;20373;-69
2021/11/19 02:19:35;;;;;;;;;;;1.80;1.00;;;;;;5030618;28;19924;-68
2021/11/19 02:22:06;;;;;;;;;;;1.80;1.00;;;;;;5030564;28;19917;-70
2021/11/19 02:24:55;;;;;;;;;;;1.80;1.00;;;;;;5029267;28;20003;-69
2021/11/19 02:27:22;;;;;;;;;;;1.70;1.00;;;;;;5025002;28;19925;-68
2021/11/19 02:29:53;;;;;;;;;;;1.70;1.00;;;;;;5030352;28;19913;-68
2021/11/19 02:32:23;;;;;;;;;;;1.60;1.00;;;;;;5034748;28;19917;-70
2021/11/19 02:34:49;;;;;;;;;;;1.60;1.00;;;;;;5048981;28;20354;-68
2021/11/19 02:37:35;;;;;;;;;;;1.60;1.00;;;;;;5050912;28;19916;-67
2021/11/19 02:40:04;;;;;;;;;;;1.60;1.00;;;;;;5024135;28;20327;-69
2021/11/19 02:42:32;;;;;;;;;;;1.60;1.00;;;;;;5009846;28;19933;-68
2021/11/19 02:45:00;;;;;;;;;;;1.50;1.00;;;;;;5019472;28;19959;-68
2021/11/19 02:47:27;;;;;;;;;;;1.50;1.00;;;;;;5030607;28;19909;-69
2021/11/19 02:49:53;;;;;;;;;;;1.40;1.00;;;;;;5030220;28;19916;-69
2021/11/19 02:52:20;;;;;;;;;;;1.40;1.00;;;;;;5029927;28;19909;-68
2021/11/19 02:54:47;;;;;;;;;;;1.40;1.00;;;;;;5028468;28;19923;-68
2021/11/19 02:57:12;;;;;;;;;;;1.40;1.00;;;;;;5030115;28;19968;-68
2021/11/19 02:59:38;;;;;;;;;;;1.50;1.00;;;;;;5030079;28;19909;-65
2021/11/19 03:02:05;;;;;;;;;;;1.50;1.00;;;;;;5029869;28;20389;-67
2021/11/19 03:04:33;;;;;;;;;;;1.50;1.00;;;;;;5030530;28;19953;-69
2021/11/19 03:06:59;;;;;;;;;;;1.50;1.00;;;;;;5050214;28;20246;-69
2021/11/19 03:09:28;;;;;;;;;;;1.50;1.00;;;;;;5048754;28;19936;-69
2021/11/19 03:11:54;;;;;;;;;;;1.50;1.00;;;;;;5049408;28;20556;-66
2021/11/19 03:14:20;;;;;;;;;;;1.50;1.00;;;;;;5049813;28;19909;-69
2021/11/19 03:16:46;;;;;;;;;;;1.50;1.00;;;;;;5050082;28;20015;-68
2021/11/19 03:19:12;;;;;;;;;;;1.50;1.00;;;;;;5049806;28;19941;-69
2021/11/19 03:21:38;;;;;;;;;;;1.60;1.00;;;;;;5050274;28;19935;-69
2021/11/19 03:24:04;;;;;;;;;;;1.60;1.00;;;;;;5047224;28;19909;-67
2021/11/19 03:26:32;;;;;;;;;;;1.60;1.00;;;;;;5049800;28;20246;-69
2021/11/19 03:28:58;;;;;;;;;;;1.70;1.00;;;;;;5049926;28;19917;-69
2021/11/19 03:31:24;;;;;;;;;;;1.80;1.00;;;;;;5038136;28;20008;-68
2021/11/19 03:33:51;;;;;;;;;;;1.70;1.00;;;;;;5029202;28;19909;-68
2021/11/19 03:36:17;;;;;;;;;;;1.70;1.00;;;;;;5030000;28;19913;-68
2021/11/19 03:38:45;;;;;;;;;;;1.80;1.00;;;;;;5028391;28;19909;-68
2021/11/19 03:41:12;;;;;;;;;;;1.80;1.00;;;;;;5029415;28;19924;-67
2021/11/19 03:43:39;;;;;;;;;;;1.80;1.00;;;;;;5029262;28;19959;-68
2021/11/19 03:46:07;;;;;;;;;;;1.80;1.00;;;;;;5029595;28;19913;-66
2021/11/19 03:48:34;;;;;;;;;;;1.80;1.00;;;;;;5029994;28;19910;-68
2021/11/19 03:51:05;;;;;;;;;;;1.90;1.00;;;;;;5029816;28;19928;-68
2021/11/19 03:53:31;;;;;;;;;;;1.90;1.00;;;;;;5027639;28;20409;-68
2021/11/19 03:55:58;;;;;;;;;;;1.90;1.00;;;;;;5029410;28;20008;-67
2021/11/19 03:58:25;;;;;;;;;;;1.90;1.00;;;;;;5028995;28;19963;-69
2021/11/19 04:00:53;;;;;;;;;;;1.80;1.00;;;;;;5029661;28;19923;-69
2021/11/19 04:03:19;;;;;;;;;;;1.90;1.00;;;;;;5029003;28;19909;-69
2021/11/19 04:05:45;;;;;;;;;;;1.90;1.00;;;;;;5040039;28;19917;-69
2021/11/19 04:08:11;;;;;;;;;;;1.90;1.00;;;;;;5047642;28;19912;-69
2021/11/19 04:10:37;;;;;;;;;;;1.90;1.00;;;;;;5037437;28;19917;-67
2021/11/19 04:13:03;;;;;;;;;;;1.90;1.00;;;;;;5048439;28;20266;-68
2021/11/19 04:15:31;;;;;;;;;;;1.80;1.00;;;;;;5049618;28;19908;-69
2021/11/19 04:17:57;;;;;;;;;;;1.80;1.00;;;;;;5049280;28;20352;-68
2021/11/19 04:20:22;;;;;;;;;;;1.80;1.00;;;;;;5049048;28;20004;-69
2021/11/19 04:22:48;;;;;;;;;;;1.80;1.00;;;;;;5047390;28;19919;-67
2021/11/19 04:25:15;;;;;;;;;;;1.80;1.00;;;;;;5049776;28;19916;-68
2021/11/19 04:27:41;;;;;;;;;;;1.80;1.00;;;;;;5049546;28;19919;-68
2021/11/19 04:30:08;;;;;;;;;;;1.90;1.00;;;;;;5048587;28;19987;-69
2021/11/19 04:32:34;;;;;;;;;;;1.90;1.00;;;;;;5029704;28;20400;-69
2021/11/19 04:34:59;;;;;;;;;;;1.90;1.00;;;;;;5033392;28;19911;-69
2021/11/19 04:37:25;;;;;;;;;;;1.90;1.00;;;;;;5033668;28;19967;-69
2021/11/19 04:39:52;;;;;;;;;;;2.00;1.00;;;;;;5032110;28;19959;-68
2021/11/19 04:42:18;;;;;;;;;;;2.00;1.00;;;;;;5033125;28;19955;-66
2021/11/19 04:44:44;;;;;;;;;;;2.10;1.00;;;;;;5033720;28;19967;-68
2021/11/19 04:47:09;;;;;;;;;;;2.10;1.00;;;;;;5033589;28;19909;-69
2021/11/19 04:49:35;;;;;;;;;;;2.10;1.00;;;;;;5033285;28;19917;-69
2021/11/19 04:52:01;;;;;;;;;;;2.10;1.00;;;;;;5032608;28;19910;-68
2021/11/19 04:54:27;;;;;;;;;;;2.10;1.00;;;;;;5031099;28;19917;-69
2021/11/19 04:56:52;;;;;;;;;;;2.10;1.00;;;;;;5033123;28;19917;-69
2021/11/19 04:59:19;;;;;;;;;;;2.20;1.00;;;;;;5033611;28;19996;-69
2021/11/19 05:01:46;;;;;;;;;;;2.20;1.00;;;;;;5032560;28;19914;-67
2021/11/19 05:04:12;;;;;;;;;;;2.20;1.00;;;;;;5032633;28;20353;-69
2021/11/19 05:06:38;;;;;;;;;;;2.20;1.00;;;;;;5050867;28;19913;-68
2021/11/19 05:09:04;;;;;;;;;;;2.20;1.00;;;;;;5052089;28;19909;-67
2021/11/19 05:11:41;;;;;;;;;;;2.10;1.00;;;;;;5052834;28;20258;-69
2021/11/19 05:14:06;;;;;;;;;;;2.10;1.00;;;;;;5052275;28;20269;-68
2021/11/19 05:16:33;;;;;;;;;;;2.10;1.00;;;;;;5052595;28;19909;-68
2021/11/19 05:18:59;;;;;;;;;;;2.10;1.00;;;;;;5052956;28;19993;-69
2021/11/19 05:21:24;;;;;;;;;;;2.10;1.00;;;;;;5052936;28;20395;-69
2021/11/19 05:23:51;;;;;;;;;;;2.10;1.00;;;;;;5051103;28;19908;-69
2021/11/19 05:26:17;;;;;;;;;;;2.00;1.00;;;;;;5052274;28;19915;-68
2021/11/19 05:28:42;;;;;;;;;;;2.00;1.00;;;;;;5052265;28;19924;-68
2021/11/19 05:31:08;;;;;;;;;;;2.00;1.00;;;;;;5037619;28;19935;-68
2021/11/19 05:33:35;;;;;;;;;;;2.00;1.00;;;;;;5039182;28;20293;-66
2021/11/19 05:36:00;;;;;;;;;;;2.00;1.00;;;;;;5024868;28;20401;-68
2021/11/19 05:38:26;;;;;;;;;;;2.00;1.00;;;;;;5009799;28;19909;-67
2021/11/19 05:40:53;;;;;;;;;;;2.10;1.00;;;;;;5018003;28;19917;-65
2021/11/19 05:43:19;;;;;;;;;;;2.10;1.00;;;;;;5028835;28;19921;-67
2021/11/19 05:45:44;;;;;;;;;;;2.10;1.00;;;;;;5021213;28;20362;-68
2021/11/19 05:48:10;;;;;;;;;;;2.10;1.00;;;;;;5020820;28;19922;-68
2021/11/19 05:50:38;;;;;;;;;;;2.10;1.00;;;;;;5014664;28;19959;-68
2021/11/19 05:53:04;;;;;;;;;;;2.10;1.00;;;;;;5029366;28;19942;-68
2021/11/19 05:55:32;;;;;;;;;;;2.10;1.00;;;;;;5031148;28;20011;-68
2021/11/19 05:57:58;;;;;;;;;;;2.10;1.00;;;;;;5018511;28;19925;-68
2021/11/19 06:00:26;;;;;;;;;;;2.10;1.00;;;;;;5011957;28;19913;-69
2021/11/19 06:02:52;;;;;;;;;;;2.00;1.00;;;;;;5020052;28;20363;-69
2021/11/19 06:05:18;;;;;;;;;;;2.00;1.00;;;;;;5020742;28;19959;-67
2021/11/19 06:07:44;;;;;;;;;;;1.90;1.00;;;;;;5020110;28;20400;-69
2021/11/19 06:10:10;;;;;;;;;;;1.90;1.00;;;;;;5018992;28;19917;-71
2021/11/19 06:12:41;;;;;;;;;;;1.90;1.00;;;;;;5018700;28;19917;-70
2021/11/19 06:15:18;;;;;;;;;;;1.80;1.00;;;;;;5019236;28;19921;-68
2021/11/19 06:17:45;;;;;;;;;;;1.90;1.00;;;;;;5020544;28;19921;-69
2021/11/19 06:20:13;;;;;;;;;;;1.90;1.00;;;;;;5015601;28;20301;-69
2021/11/19 06:22:40;;;;;;;;;;;1.90;1.00;;;;;;5012101;28;19910;-68
2021/11/19 06:25:08;;;;;;;;;;;1.90;1.00;;;;;;5022039;28;19975;-69
2021/11/19 06:27:35;;;;;;;;;;;1.90;1.00;;;;;;5031732;28;20268;-69
2021/11/19 06:30:02;;;;;;;;;;;2.00;1.00;;;;;;5030442;28;20335;-70
2021/11/19 06:32:28;;;;;;;;;;;1.90;1.00;;;;;;5035574;28;19991;-69
2021/11/19 06:34:54;;;;;;;;;;;2.00;1.00;;;;;;5048564;28;19908;-70
2021/11/19 06:37:20;;;;;;;;;;;1.90;1.00;;;;;;5014563;28;19924;-71
2021/11/19 06:39:45;;;;;;;;;;;1.90;1.00;;;;;;5011986;28;19914;-70
2021/11/19 06:42:12;;;;;;;;;;;1.90;1.00;;;;;;5008327;28;19929;-68
2021/11/19 06:44:38;;;;;;;;;;;1.80;1.00;;;;;;5017515;28;19920;-70
2021/11/19 06:47:05;;;;;;;;;;;1.80;1.00;;;;;;5009506;28;19916;-69
2021/11/19 06:49:30;;;;;;;;;;;1.90;1.00;;;;;;5020115;28;20239;-69
2021/11/19 06:51:56;;;;;;;;;;;1.90;1.00;;;;;;5008116;28;19925;-68
2021/11/19 06:54:21;;;;;;;;;;;2.00;1.00;;;;;;5007389;28;19910;-71
2021/11/19 06:56:47;;;;;;;;;;;2.10;1.00;;;;;;5007921;28;19921;-69
2021/11/19 06:59:13;;;;;;;;;;;2.10;1.00;;;;;;5018244;28;19967;-70
2021/11/19 07:01:38;;;;;;;;;;;2.10;1.00;;;;;;5028571;28;19920;-69
2021/11/19 07:04:04;;;;;;;;;;;2.20;1.00;;;;;;5023693;28;19944;-67
2021/11/19 07:06:30;;;;;;;;;;;2.30;1.00;;;;;;5041891;28;19920;-68
2021/11/19 07:08:56;;;;;;;;;;;2.40;1.00;;;;;;5021714;28;20051;-69
2021/11/19 07:11:22;;;;;;;;;;;2.40;1.00;;;;;;5027664;28;19913;-69
2021/11/19 07:13:49;;;;;;;;;;;2.40;1.00;;;;;;5025802;28;20269;-69
2021/11/19 07:16:16;;;;;;;;;;;2.50;1.00;;;;;;5006413;28;19963;-67
2021/11/19 07:18:42;;;;;;;;;;;2.50;1.00;;;;;;5018074;28;20013;-70
2021/11/19 07:21:07;;;;;;;;;;;2.60;1.00;;;;;;5016868;28;20008;-69
2021/11/19 07:23:33;;;;;;;;;;;2.70;1.00;;;;;;5010186;28;20003;-69
2021/11/19 07:25:58;;;;;;;;;;;2.70;1.00;;;;;;5015307;28;19917;-68
2021/11/19 07:28:25;;;;;;;;;;;2.70;1.00;;;;;;5024713;28;20004;-68
2021/11/19 07:30:52;;;;;;;;;;;2.70;1.00;;;;;;5020346;28;20024;-68
2021/11/19 07:33:19;;;;;;;;;;;2.70;1.00;;;;;;5023111;28;20354;-70
2021/11/19 07:35:45;;;;;;;;;;;2.70;1.00;;;;;;5019338;28;20008;-69
2021/11/19 07:38:11;;;;;;;;;;;2.70;1.00;;;;;;5019629;28;19967;-69
2021/11/19 07:40:38;;;;;;;;;;;2.70;1.00;;;;;;5014224;28;19920;-69
2021/11/19 07:43:04;;;;;;;;;;;2.70;1.00;;;;;;5013625;28;19953;-68
2021/11/19 07:45:35;;;;;;;;;;;2.70;1.00;;;;;;5013684;28;19960;-68
2021/11/19 07:48:03;;;;;;;;;;;2.70;1.00;;;;;;5019576;28;20000;-68
2021/11/19 07:50:28;;;;;;;;;;;2.80;1.00;;;;;;5029711;28;19917;-69
2021/11/19 07:52:54;;;;;;;;;;;2.80;1.00;;;;;;5026119;28;19919;-69
2021/11/19 07:55:20;;;;;;;;;;;3.00;1.00;;;;;;5028077;28;19917;-68
2021/11/19 07:57:45;;;;;;;;;;;3.10;1.00;;;;;;5018685;28;19920;-69
2021/11/19 08:00:13;;;;;;;;;;;3.20;1.00;;;;;;5024174;28;19921;-69
2021/11/19 08:02:39;;;;;;;;;;;3.30;1.00;;;;;;5014715;28;19920;-69
2021/11/19 08:05:05;;;;;;;;;;;3.50;1.00;;;;;;5022845;28;19908;-68
2021/11/19 08:07:31;;;;;;;;;;;3.70;1.00;;;;;;5019308;28;19917;-68
2021/11/19 08:09:58;;;;;;;;;;;3.80;99.90;;;;;;5030148;28;19944;-69
2021/11/19 08:12:24;;;;;;;;;;;3.90;1.00;;;;;;5014485;28;19947;-69
2021/11/19 08:14:49;;;;;;;;;;;3.90;1.00;;;;;;5028690;28;19913;-69
2021/11/19 08:17:24;;;;;;;;;;;4.10;1.00;;;;;;5038906;23;19956;-68
2021/11/19 08:19:50;;;;;;;;;;;4.10;10.60;;;;;;5006126;28;19976;-68
2021/11/19 08:22:16;;;;;;;;;;;4.00;99.90;;;;;;5008105;28;20000;-68
2021/11/19 08:24:42;;;;;;;;;;;4.10;1.00;;;;;;5006668;28;19910;-69
2021/11/19 08:27:13;;;;;;;;;;;4.30;1.00;;;;;;5008299;28;20597;-69
2021/11/19 08:29:39;;;;;;;;;;;4.20;1.00;;;;;;5008077;28;19950;-68
2021/11/19 08:32:06;;;;;;;;;;;4.40;1.00;;;;;;5008003;28;19928;-69
2021/11/19 08:34:32;;;;;;;;;;;4.50;99.90;;;;;;5008408;28;20326;-69
2021/11/19 08:36:57;;;;;;;;;;;4.60;1.00;;;;;;5008497;28;19921;-68
2021/11/19 08:39:24;;;;;;;;;;;4.60;1.00;;;;;;5007054;28;19917;-69
2021/11/19 08:41:50;;;;;;;;;;;4.60;99.90;;;;;;5007694;28;19925;-68
2021/11/19 08:44:16;;;;;;;;;;;4.50;99.90;;;;;;5007827;28;19917;-67
2021/11/19 08:46:43;;;;;;;;;;;4.60;99.90;;;;;;5007372;28;19913;-70
2021/11/19 08:49:10;;;;;;;;;;;4.70;99.90;;;;;;5005820;28;19960;-67
2021/11/19 08:51:36;;;;;;;;;;;4.60;99.90;;;;;;5008667;28;20008;-69
2021/11/19 08:54:05;;;;;;;;;;;4.60;99.90;;;;;;5006820;28;19964;-70
2021/11/19 08:56:31;;;;;;;;;;;4.60;1.00;;;;;;5008489;28;19910;-69
2021/11/19 08:58:57;;;;;;;;;;;4.80;99.90;;;;;;5008552;28;20227;-70
2021/11/19 09:01:22;;;;;;;;;;;5.00;99.90;;;;;;5008318;28;20287;-69
2021/11/19 09:03:48;;;;;;;;;;;5.30;1.00;;;;;;5006866;28;19957;-70
2021/11/19 09:06:15;;;;;;;;;;;5.50;99.90;;;;;;5022569;28;19913;-70
2021/11/19 09:08:42;;;;;;;;;;;5.70;15.10;;;;;;5010037;28;19977;-70
2021/11/19 09:11:08;;;;;;;;;;;5.80;1.00;;;;;;5015511;28;19921;-69
2021/11/19 09:13:34;;;;;;;;;;;5.70;1.00;;;;;;5007603;28;20506;-70
2021/11/19 09:16:00;;;;;;;;;;;5.90;1.00;;;;;;5008697;28;20057;-70
2021/11/19 09:18:26;;;;;;;;;;;6.30;1.00;;;;;;5004309;28;20422;-69
2021/11/19 09:20:54;;;;;;;;;;;6.60;99.90;;;;;;5004187;28;19917;-69
2021/11/19 09:23:20;;;;;;;;;;;7.00;99.90;;;;;;5009953;28;20012;-70
2021/11/19 09:25:47;;;;;;;;;;;7.30;1.00;;;;;;5010977;28;20004;-70
2021/11/19 09:28:13;;;;;;;;;;;7.60;1.00;;;;;;5010931;28;19921;-71
2021/11/19 09:30:40;;;;;;;;;;;7.90;1.00;;;;;;5010811;28;19913;-70
2021/11/19 09:33:07;;;;;;;;;;;8.00;1.00;;;;;;5003611;28;20406;-70
2021/11/19 09:35:33;;;;;;;;;;;7.80;1.00;;;;;;4999003;28;19920;-69
2021/11/19 09:37:59;;;;;;;;;;;7.30;1.00;;;;;;5010065;28;19918;-71
2021/11/19 09:40:27;;;;;;;;;;;7.00;1.00;;;;;;5011094;28;19913;-71
2021/11/19 09:42:55;;;;;;;;;;;6.70;1.00;;;;;;5010099;28;20343;-71
2021/11/19 09:45:27;;;;;;;;;;;6.80;1.00;;;;;;5010377;28;19963;-70
2021/11/19 09:48:22;;;;;;;;;;;6.70;1.00;;;;;;5010265;28;20353;-70
2021/11/19 09:50:48;;;;;;;;;;;6.50;1.00;;;;;;4984941;28;20313;-70
2021/11/19 09:53:32;;;;;;;;;;;5.90;13.70;;;;;;5009263;28;19914;-69
2021/11/19 09:56:15;;;;;;;;;;;5.70;99.90;;;;;;5009688;28;20325;-70
2021/11/19 09:58:40;;;;;;;;;;;5.60;99.90;;;;;;4995456;28;19927;-70
2021/11/19 10:01:26;;;;;;;;;;;5.50;1.00;;;;;;5011198;28;20000;-70
2021/11/19 10:03:54;;;;;;;;;;;5.50;1.00;;;;;;5010407;28;20588;-71
2021/11/19 10:06:25;;;;;;;;;;;5.40;1.00;;;;;;5025681;28;20324;-71
2021/11/19 10:09:15;;;;;;;;;;;5.50;1.00;;;;;;5017518;28;19918;-70
2021/11/19 10:11:47;;;;;;;;;;;5.60;1.00;;;;;;4992089;28;20289;-70
2021/11/19 10:14:26;;;;;;;;;;;5.90;1.00;;;;;;5001794;28;19920;-69
2021/11/19 10:17:04;;;;;;;;;;;6.10;1.00;;;;;;5010318;28;19940;-70
2021/11/19 10:19:31;;;;;;;;;;;6.30;1.00;;;;;;5010727;28;20479;-69
2021/11/19 10:22:20;;;;;;;;;;;6.40;99.90;;;;;;5009758;28;19929;-69
2021/11/19 10:24:46;;;;;;;;;;;6.40;99.90;;;;;;4998217;28;19920;-69
2021/11/19 10:27:14;;;;;;;;;;;6.10;99.90;;;;;;5009184;28;19913;-70
2021/11/19 10:29:45;;;;;;;;;;;6.20;1.00;;;;;;5010449;28;19992;-70
2021/11/19 10:32:11;;;;;;;;;;;6.40;1.00;;;;;;5017034;28;19920;-70
2021/11/19 10:34:59;;;;;;;;;;;6.60;99.90;;;;;;5026793;28;19936;-70
2021/11/19 10:37:44;;;;;;;;;;;6.50;99.90;;;;;;5011329;28;19914;-69
2021/11/19 10:40:28;;;;;;;;;;;6.50;99.90;;;;;;5009680;28;19925;-70
2021/11/19 10:43:14;;;;;;;;;;;6.50;99.90;;;;;;4989254;28;19922;-69
2021/11/19 10:45:40;;;;;;;;;;;6.30;99.90;;;;;;5004777;28;19915;-70
2021/11/19 10:48:05;;;;;;;;;;;6.20;1.00;;;;;;5008911;28;19924;-70
2021/11/19 10:50:43;;;;;;;;;;;5.80;1.00;;;;;;5009751;28;19910;-70
2021/11/19 10:53:27;;;;;;;;;;;5.60;99.90;;;;;;4989426;28;19917;-70
2021/11/19 10:56:01;;;;;;;;;;;5.40;99.90;;;;;;5010175;28;20080;-70
2021/11/19 10:58:32;;;;;;;;;;;5.70;1.00;;;;;;5009741;28;19976;-70
2021/11/19 11:00:58;;;;;;;;;;;5.90;99.90;;;;;;5009721;28;19914;-70
2021/11/19 11:03:27;;;;;;;;;;;6.10;1.00;;;;;;5009490;28;19924;-70
2021/11/19 11:05:57;;;;;;;;;;;6.10;1.00;;;;;;5016171;28;20001;-69
2021/11/19 11:08:30;;;;;;;;;;;6.20;1.00;;;;;;5008073;28;19921;-70
2021/11/19 11:10:59;;;;;;;;;;;6.30;1.00;;;;;;5008348;28;20083;-69
2021/11/19 11:13:24;;;;;;;;;;;6.30;99.90;;;;;;5008820;28;20330;-70
2021/11/19 11:15:52;;;;;;;;;;;6.20;99.90;;;;;;5009800;28;19910;-70
2021/11/19 11:18:23;;;;;;;;;;;6.40;99.90;;;;;;5009361;28;19924;-70
2021/11/19 11:20:48;;;;;;;;;;;6.50;53.10;;;;;;5009152;28;19917;-69
2021/11/19 11:23:33;;;;;;;;;;;6.40;1.00;;;;;;5007305;28;20254;-72
2021/11/19 11:26:02;;;;;;;;;;;6.50;99.90;;;;;;5008695;28;20285;-70
2021/11/19 11:28:48;;;;;;;;;;;6.40;70.00;;;;;;5008394;28;19917;-70
2021/11/19 11:31:16;;;;;;;;;;;6.40;99.90;;;;;;5008602;28;20558;-71
2021/11/19 11:33:51;;;;;;;;;;;6.50;99.90;;;;;;5008599;28;19913;-69
2021/11/19 11:36:22;;;;;;;;;;;6.60;8.00;;;;;;5007771;28;20020;-69
2021/11/19 11:38:51;;;;;;;;;;;6.80;46.70;;;;;;5008067;28;19920;-69
2021/11/19 11:41:19;;;;;;;;;;;6.90;1.00;;;;;;5008767;28;20345;-70
2021/11/19 11:43:47;;;;;;;;;;;7.00;1.00;;;;;;5007424;28;19921;-71
2021/11/19 11:46:42;;;;;;;;;;;7.20;1.00;;;;;;5008288;28;20386;-71
2021/11/19 11:49:29;;;;;;;;;;;7.10;1.00;;;;;;4990094;28;20401;-69
2021/11/19 11:52:18;;;;;;;;;;;7.30;1.00;;;;;;5007619;28;20014;-69
2021/11/19 11:55:03;;;;;;;;;;;7.20;1.00;;;;;;4960634;28;19918;-69
2021/11/19 11:57:28;;;;;;;;;;;7.10;1.00;;;;;;4990233;28;19985;-69
2021/11/19 11:59:57;;;;;;;;;;;7.00;1.00;;;;;;5008845;28;19921;-69
2021/11/19 12:02:26;;;;;;;;;;;6.90;1.00;;;;;;5008235;28;20416;-68
2021/11/19 12:05:34;;;;;;;;;;;;;;;;;;;;;
2021/11/19 12:08:19;;;;;;;;;;;6.90;1.00;;;;;;5006789;28;20382;-68
2021/11/19 12:11:01;;;;;;;;;;;7.00;26.30;;;;;;5016505;28;19960;-70
2021/11/19 12:13:46;;;;;;;;;;;7.20;1.00;;;;;;5007101;28;19921;-69
2021/11/19 12:16:30;;;;;;;;;;;7.40;1.00;;;;;;5008641;28;20376;-70
2021/11/19 12:19:02;;;;;;;;;;;7.40;1.00;;;;;;5008702;28;20095;-69
2021/11/19 12:21:28;;;;;;;;;;;7.50;1.00;;;;;;5008352;28;19926;-69
2021/11/19 12:23:53;;;;;;;;;;;7.40;1.00;;;;;;5006511;28;19944;-69
2021/11/19 12:26:34;;;;;;;;;;;7.30;1.00;;;;;;5007763;28;20076;-68
2021/11/19 12:29:08;;;;;;;;;;;7.20;1.00;;;;;;5007184;28;19914;-68
2021/11/19 12:31:39;;;;;;;;;;;6.80;1.00;;;;;;5006553;28;19974;-68
2021/11/19 12:34:11;;;;;;;;;;;6.80;52.60;;;;;;4999502;28;19918;-68
2021/11/19 12:36:47;;;;;;;;;;;6.80;99.90;;;;;;5007959;28;19968;-68
2021/11/19 12:39:13;;;;;;;;;;;6.70;99.90;;;;;;5006789;28;20004;-72
2021/11/19 12:41:44;;;;;;;;;;;6.60;1.00;;;;;;5007707;28;20021;-69
2021/11/19 12:44:23;;;;;;;;;;;6.60;1.00;;;;;;5008268;28;19913;-69
2021/11/19 12:46:55;;;;;;;;;;;6.50;1.00;;;;;;4994099;28;19917;-68
2021/11/19 12:49:39;;;;;;;;;;;6.40;99.90;;;;;;5007516;28;19956;-68
2021/11/19 12:52:05;;;;;;;;;;;6.40;1.00;;;;;;5007746;28;20016;-68
2021/11/19 12:54:49;;;;;;;;;;;6.40;1.00;;;;;;5008872;28;19937;-67
2021/11/19 12:57:20;;;;;;;;;;;6.40;1.00;;;;;;5012475;28;19914;-70
2021/11/19 12:59:52;;;;;;;;;;;6.50;1.00;;;;;;5011890;28;19913;-70
2021/11/19 13:02:29;;;;;;;;;;;6.60;1.00;;;;;;4993355;28;19917;-68
2021/11/19 13:04:58;;;;;;;;;;;6.70;1.00;;;;;;5015792;28;19961;-70
2021/11/19 13:07:32;;;;;;;;;;;6.80;99.90;;;;;;5015794;28;19939;-70
2021/11/19 13:09:59;;;;;;;;;;;6.80;99.90;;;;;;5009984;28;19936;-70
2021/11/19 13:12:27;;;;;;;;;;;6.70;99.90;;;;;;5010827;28;20040;-68
2021/11/19 13:15:11;;;;;;;;;;;6.70;99.90;;;;;;5012217;28;20398;-68
2021/11/19 13:17:38;;;;;;;;;;;6.70;99.90;;;;;;5011331;28;19922;-68
2021/11/19 13:20:26;;;;;;;;;;;6.50;99.90;;;;;;5011455;28;19922;-68
2021/11/19 13:22:52;;;;;;;;;;;6.30;1.00;;;;;;5009499;28;19932;-68
2021/11/19 13:25:32;;;;;;;;;;;6.20;1.00;;;;;;5011624;28;20430;-69
2021/11/19 13:27:58;;;;;;;;;;;6.20;99.90;;;;;;5011656;28;20251;-69
2021/11/19 13:30:33;;;;;;;;;;;6.30;1.00;;;;;;5010852;28;19914;-68
2021/11/19 13:33:04;;;;;;;;;;;6.30;1.00;;;;;;5018676;28;19924;-69
2021/11/19 13:35:30;;;;;;;;;;;6.50;1.00;;;;;;5011499;28;19921;-69
2021/11/19 13:38:02;;;;;;;;;;;6.60;1.00;;;;;;5009914;28;19968;-68
2021/11/19 13:40:27;;;;;;;;;;;6.60;1.00;;;;;;5010978;28;19921;-68
2021/11/19 13:42:54;;;;;;;;;;;6.80;1.00;;;;;;5009796;28;19972;-68
2021/11/19 13:45:38;;;;;;;;;;;6.80;2.50;;;;;;5010842;28;20000;-69
2021/11/19 13:48:23;;;;;;;;;;;6.80;1.00;;;;;;5005050;28;19922;-68
2021/11/19 13:50:51;;;;;;;;;;;6.80;1.00;;;;;;5011064;28;19913;-69
2021/11/19 13:53:22;;;;;;;;;;;6.60;99.90;;;;;;5009065;28;19932;-69
2021/11/19 13:55:53;;;;;;;;;;;6.60;1.00;;;;;;5011303;28;20000;-66
2021/11/19 13:58:25;;;;;;;;;;;6.70;1.00;;;;;;5011275;28;19910;-69
2021/11/19 14:01:09;;;;;;;;;;;6.60;1.00;;;;;;5011452;28;19917;-69
2021/11/19 14:03:36;;;;;;;;;;;6.60;1.00;;;;;;4992057;28;19929;-72
2021/11/19 14:06:27;;;;;;;;;;;6.60;1.00;;;;;;5010086;28;19918;-70
2021/11/19 14:08:53;;;;;;;;;;;6.60;1.00;;;;;;4978902;28;19913;-69
2021/11/19 14:11:21;;;;;;;;;;;6.60;99.90;;;;;;5009723;28;19913;-71
2021/11/19 14:13:47;;;;;;;;;;;6.50;1.00;;;;;;5009391;28;19913;-69
2021/11/19 14:16:15;;;;;;;;;;;6.40;99.90;;;;;;5010492;28;19917;-69
2021/11/19 14:19:02;;;;;;;;;;;6.40;1.00;;;;;;5011001;28;19925;-69
2021/11/19 14:24:28;;;;;;;;;;;6.50;1.00;;;;;;5009236;28;19921;-70
2021/11/19 14:27:03;;;;;;;;;;;6.40;1.00;;;;;;5010459;28;20290;-68
2021/11/19 14:29:31;;;;;;;;;;;6.50;59.10;;;;;;5010057;28;20530;-69
2021/11/19 14:31:58;;;;;;;;;;;6.50;1.00;;;;;;5009243;28;20342;-69
2021/11/19 14:34:39;;;;;;;;;;;6.40;1.00;;;;;;5010354;28;20357;-69
2021/11/19 14:37:10;;;;;;;;;;;6.40;99.90;;;;;;5010034;28;20428;-67
2021/11/19 14:39:36;;;;;;;;;;;6.30;1.00;;;;;;5008901;28;19914;-68
2021/11/19 14:42:14;;;;;;;;;;;6.30;1.00;;;;;;5010274;28;19928;-67
2021/11/19 14:45:00;;;;;;;;;;;6.30;1.00;;;;;;5010281;28;19952;-68
2021/11/19 14:47:33;;;;;;;;;;;6.20;1.00;;;;;;5009225;28;19922;-67
2021/11/19 14:50:08;;;;;;;;;;;6.10;1.00;;;;;;5010617;28;19919;-68
2021/11/19 14:52:46;;;;;;;;;;;6.00;99.90;;;;;;5008959;28;19921;-68
2021/11/19 14:55:30;;;;;;;;;;;6.00;99.90;;;;;;5010040;28;20004;-69
2021/11/19 14:58:15;;;;;;;;;;;5.90;99.90;;;;;;5009389;28;19961;-68